sensor_id;sensor_type;location;lat;lon;timestamp;P1;durP1;ratioP1;P2;durP2;ratioP2
62006;SDS011;47963;53.008;6.754;2022-10-31T00:00:29;74.35;;;33.85;;
62006;SDS011;47963;53.008;6.754;2022-10-31T00:02:55;73.00;;;34.13;;
62006;SDS011;47963;53.008;6.754;2022-10-31T00:05:20;72.63;;;35.92;;
62006;SDS011;47963;53.008;6.754;2022-10-31T00:07:46;65.50;;;31.45;;
62006;SDS011;47963;53.008;6.754;2022-10-31T00:10:12;64.93;;;32.25;;
62006;SDS011;47963;53.008;6.754;2022-10-31T00:12:37;68.50;;;32.17;;
62006;SDS011;47963;53.008;6.754;2022-10-31T00:15:03;64.15;;;31.13;;
62006;SDS011;47963;53.008;6.754;2022-10-31T00:17:29;61.22;;;31.38;;
62006;SDS011;47963;53.008;6.754;2022-10-31T00:19:54;61.65;;;30.70;;
62006;SDS011;47963;53.008;6.754;2022-10-31T00:22:21;60.28;;;30.63;;
62006;SDS011;47963;53.008;6.754;2022-10-31T00:24:47;57.92;;;30.35;;
62006;SDS011;47963;53.008;6.754;2022-10-31T00:27:12;66.97;;;31.42;;
62006;SDS011;47963;53.008;6.754;2022-10-31T00:29:38;57.22;;;29.52;;
62006;SDS011;47963;53.008;6.754;2022-10-31T00:32:04;62.08;;;28.65;;
62006;SDS011;47963;53.008;6.754;2022-10-31T00:34:29;53.03;;;26.80;;
62006;SDS011;47963;53.008;6.754;2022-10-31T00:36:55;58.67;;;26.83;;
62006;SDS011;47963;53.008;6.754;2022-10-31T00:39:20;59.15;;;26.95;;
62006;SDS011;47963;53.008;6.754;2022-10-31T00:41:46;54.33;;;26.25;;
62006;SDS011;47963;53.008;6.754;2022-10-31T00:44:12;55.75;;;26.08;;
62006;SDS011;47963;53.008;6.754;2022-10-31T00:46:37;49.78;;;25.08;;
62006;SDS011;47963;53.008;6.754;2022-10-31T00:49:03;49.28;;;24.27;;
62006;SDS011;47963;53.008;6.754;2022-10-31T00:51:28;57.03;;;26.52;;
62006;SDS011;47963;53.008;6.754;2022-10-31T00:53:54;52.58;;;24.42;;
62006;SDS011;47963;53.008;6.754;2022-10-31T00:56:20;51.13;;;24.98;;
62006;SDS011;47963;53.008;6.754;2022-10-31T00:58:45;61.00;;;25.17;;
62006;SDS011;47963;53.008;6.754;2022-10-31T01:01:11;44.10;;;24.38;;
62006;SDS011;47963;53.008;6.754;2022-10-31T01:03:38;52.30;;;25.30;;
62006;SDS011;47963;53.008;6.754;2022-10-31T01:06:05;50.08;;;25.67;;
62006;SDS011;47963;53.008;6.754;2022-10-31T01:08:37;51.72;;;25.98;;
62006;SDS011;47963;53.008;6.754;2022-10-31T01:11:07;54.20;;;27.67;;
62006;SDS011;47963;53.008;6.754;2022-10-31T01:13:38;45.20;;;23.98;;
62006;SDS011;47963;53.008;6.754;2022-10-31T01:16:05;56.88;;;26.73;;
62006;SDS011;47963;53.008;6.754;2022-10-31T01:18:32;44.63;;;25.23;;
62006;SDS011;47963;53.008;6.754;2022-10-31T01:21:06;46.92;;;24.38;;
62006;SDS011;47963;53.008;6.754;2022-10-31T01:23:42;42.70;;;23.92;;
62006;SDS011;47963;53.008;6.754;2022-10-31T01:26:12;45.75;;;24.63;;
62006;SDS011;47963;53.008;6.754;2022-10-31T01:28:46;45.83;;;24.63;;
62006;SDS011;47963;53.008;6.754;2022-10-31T01:31:17;50.63;;;24.42;;
62006;SDS011;47963;53.008;6.754;2022-10-31T01:33:44;46.40;;;24.63;;
62006;SDS011;47963;53.008;6.754;2022-10-31T01:36:11;47.75;;;25.00;;
62006;SDS011;47963;53.008;6.754;2022-10-31T01:38:43;54.63;;;26.27;;
62006;SDS011;47963;53.008;6.754;2022-10-31T01:41:10;47.78;;;25.92;;
62006;SDS011;47963;53.008;6.754;2022-10-31T01:46:11;50.47;;;26.50;;
62006;SDS011;47963;53.008;6.754;2022-10-31T01:48:37;47.92;;;26.02;;
62006;SDS011;47963;53.008;6.754;2022-10-31T01:51:05;56.70;;;29.60;;
62006;SDS011;47963;53.008;6.754;2022-10-31T01:53:31;54.05;;;26.52;;
62006;SDS011;47963;53.008;6.754;2022-10-31T01:55:58;55.70;;;26.58;;
62006;SDS011;47963;53.008;6.754;2022-10-31T01:58:25;46.35;;;26.00;;
62006;SDS011;47963;53.008;6.754;2022-10-31T02:00:56;45.83;;;26.95;;
62006;SDS011;47963;53.008;6.754;2022-10-31T02:03:24;52.88;;;28.77;;
62006;SDS011;47963;53.008;6.754;2022-10-31T02:05:52;58.17;;;29.10;;
62006;SDS011;47963;53.008;6.754;2022-10-31T02:08:23;52.55;;;28.50;;
62006;SDS011;47963;53.008;6.754;2022-10-31T02:10:52;54.00;;;28.83;;
62006;SDS011;47963;53.008;6.754;2022-10-31T02:13:21;57.10;;;29.33;;
62006;SDS011;47963;53.008;6.754;2022-10-31T02:15:49;51.10;;;28.98;;
62006;SDS011;47963;53.008;6.754;2022-10-31T02:18:17;50.95;;;29.67;;
62006;SDS011;47963;53.008;6.754;2022-10-31T02:20:54;66.85;;;34.03;;
62006;SDS011;47963;53.008;6.754;2022-10-31T02:29:30;61.25;;;33.08;;
62006;SDS011;47963;53.008;6.754;2022-10-31T02:37:14;60.67;;;32.78;;
62006;SDS011;47963;53.008;6.754;2022-10-31T02:42:46;62.38;;;34.67;;
62006;SDS011;47963;53.008;6.754;2022-10-31T02:48:13;59.15;;;32.47;;
62006;SDS011;47963;53.008;6.754;2022-10-31T02:50:45;63.08;;;34.50;;
62006;SDS011;47963;53.008;6.754;2022-10-31T02:53:22;56.55;;;32.28;;
62006;SDS011;47963;53.008;6.754;2022-10-31T02:56:20;58.70;;;33.13;;
62006;SDS011;47963;53.008;6.754;2022-10-31T02:58:40;57.63;;;32.13;;
62006;SDS011;47963;53.008;6.754;2022-10-31T03:01:25;55.33;;;31.08;;
62006;SDS011;47963;53.008;6.754;2022-10-31T03:03:57;53.35;;;31.00;;
62006;SDS011;47963;53.008;6.754;2022-10-31T03:07:39;53.78;;;30.88;;
62006;SDS011;47963;53.008;6.754;2022-10-31T03:10:39;56.95;;;31.58;;
62006;SDS011;47963;53.008;6.754;2022-10-31T03:15:34;56.20;;;30.48;;
62006;SDS011;47963;53.008;6.754;2022-10-31T03:18:08;51.42;;;29.88;;
62006;SDS011;47963;53.008;6.754;2022-10-31T03:20:42;54.63;;;30.35;;
62006;SDS011;47963;53.008;6.754;2022-10-31T03:23:16;53.00;;;28.63;;
62006;SDS011;47963;53.008;6.754;2022-10-31T03:25:44;48.47;;;28.05;;
62006;SDS011;47963;53.008;6.754;2022-10-31T03:28:12;49.67;;;28.45;;
62006;SDS011;47963;53.008;6.754;2022-10-31T03:30:42;45.42;;;28.48;;
62006;SDS011;47963;53.008;6.754;2022-10-31T03:33:12;47.13;;;27.60;;
62006;SDS011;47963;53.008;6.754;2022-10-31T03:35:42;49.63;;;27.87;;
62006;SDS011;47963;53.008;6.754;2022-10-31T03:38:11;47.08;;;28.13;;
62006;SDS011;47963;53.008;6.754;2022-10-31T03:40:40;52.35;;;28.15;;
62006;SDS011;47963;53.008;6.754;2022-10-31T03:43:10;45.85;;;27.95;;
62006;SDS011;47963;53.008;6.754;2022-10-31T03:45:41;41.47;;;26.65;;
62006;SDS011;47963;53.008;6.754;2022-10-31T03:48:10;42.78;;;26.85;;
62006;SDS011;47963;53.008;6.754;2022-10-31T03:53:34;40.92;;;25.50;;
62006;SDS011;47963;53.008;6.754;2022-10-31T03:56:09;43.78;;;25.35;;
62006;SDS011;47963;53.008;6.754;2022-10-31T03:58:39;40.33;;;24.85;;
62006;SDS011;47963;53.008;6.754;2022-10-31T04:01:13;46.17;;;26.67;;
62006;SDS011;47963;53.008;6.754;2022-10-31T04:03:42;42.75;;;25.52;;
62006;SDS011;47963;53.008;6.754;2022-10-31T04:06:09;45.83;;;26.50;;
62006;SDS011;47963;53.008;6.754;2022-10-31T04:08:46;44.63;;;26.00;;
62006;SDS011;47963;53.008;6.754;2022-10-31T04:11:16;44.83;;;26.40;;
62006;SDS011;47963;53.008;6.754;2022-10-31T04:13:44;41.70;;;24.75;;
62006;SDS011;47963;53.008;6.754;2022-10-31T04:16:12;45.80;;;27.42;;
62006;SDS011;47963;53.008;6.754;2022-10-31T04:18:39;44.03;;;27.73;;
62006;SDS011;47963;53.008;6.754;2022-10-31T04:21:06;47.28;;;26.92;;
62006;SDS011;47963;53.008;6.754;2022-10-31T04:23:32;42.85;;;25.60;;
62006;SDS011;47963;53.008;6.754;2022-10-31T04:25:59;45.30;;;27.15;;
62006;SDS011;47963;53.008;6.754;2022-10-31T04:28:25;43.03;;;26.25;;
62006;SDS011;47963;53.008;6.754;2022-10-31T04:30:51;46.88;;;27.98;;
62006;SDS011;47963;53.008;6.754;2022-10-31T04:33:17;42.53;;;25.50;;
62006;SDS011;47963;53.008;6.754;2022-10-31T04:35:43;41.60;;;25.35;;
62006;SDS011;47963;53.008;6.754;2022-10-31T04:38:09;45.10;;;27.38;;
62006;SDS011;47963;53.008;6.754;2022-10-31T04:40:35;42.40;;;25.75;;
62006;SDS011;47963;53.008;6.754;2022-10-31T04:43:00;43.95;;;26.15;;
62006;SDS011;47963;53.008;6.754;2022-10-31T04:45:26;41.30;;;25.75;;
62006;SDS011;47963;53.008;6.754;2022-10-31T04:47:51;40.28;;;26.15;;
62006;SDS011;47963;53.008;6.754;2022-10-31T04:50:17;39.80;;;25.52;;
62006;SDS011;47963;53.008;6.754;2022-10-31T04:52:43;41.38;;;24.90;;
62006;SDS011;47963;53.008;6.754;2022-10-31T04:55:10;43.13;;;26.13;;
62006;SDS011;47963;53.008;6.754;2022-10-31T04:57:44;40.42;;;25.20;;
62006;SDS011;47963;53.008;6.754;2022-10-31T05:00:11;43.30;;;25.85;;
62006;SDS011;47963;53.008;6.754;2022-10-31T05:02:50;41.83;;;26.58;;
62006;SDS011;47963;53.008;6.754;2022-10-31T05:05:17;44.28;;;26.10;;
62006;SDS011;47963;53.008;6.754;2022-10-31T05:07:45;45.72;;;27.25;;
62006;SDS011;47963;53.008;6.754;2022-10-31T05:10:13;41.15;;;25.55;;
62006;SDS011;47963;53.008;6.754;2022-10-31T05:12:48;40.78;;;25.95;;
62006;SDS011;47963;53.008;6.754;2022-10-31T05:15:15;42.90;;;26.20;;
62006;SDS011;47963;53.008;6.754;2022-10-31T05:17:42;43.55;;;26.00;;
62006;SDS011;47963;53.008;6.754;2022-10-31T05:20:08;40.05;;;25.73;;
62006;SDS011;47963;53.008;6.754;2022-10-31T05:22:35;40.88;;;25.83;;
62006;SDS011;47963;53.008;6.754;2022-10-31T05:25:01;44.45;;;26.80;;
62006;SDS011;47963;53.008;6.754;2022-10-31T05:27:26;38.55;;;25.90;;
62006;SDS011;47963;53.008;6.754;2022-10-31T05:29:52;40.30;;;25.92;;
62006;SDS011;47963;53.008;6.754;2022-10-31T05:32:18;41.85;;;27.25;;
62006;SDS011;47963;53.008;6.754;2022-10-31T05:34:43;38.05;;;26.15;;
62006;SDS011;47963;53.008;6.754;2022-10-31T05:37:09;41.50;;;26.63;;
62006;SDS011;47963;53.008;6.754;2022-10-31T05:39:34;42.40;;;28.05;;
62006;SDS011;47963;53.008;6.754;2022-10-31T05:42:00;41.00;;;26.90;;
62006;SDS011;47963;53.008;6.754;2022-10-31T05:44:26;43.42;;;27.42;;
62006;SDS011;47963;53.008;6.754;2022-10-31T05:46:51;43.33;;;28.48;;
62006;SDS011;47963;53.008;6.754;2022-10-31T05:49:17;44.72;;;28.15;;
62006;SDS011;47963;53.008;6.754;2022-10-31T05:51:43;40.10;;;27.92;;
62006;SDS011;47963;53.008;6.754;2022-10-31T05:54:08;39.50;;;27.17;;
62006;SDS011;47963;53.008;6.754;2022-10-31T05:56:34;44.33;;;27.52;;
62006;SDS011;47963;53.008;6.754;2022-10-31T05:59:00;38.60;;;26.33;;
62006;SDS011;47963;53.008;6.754;2022-10-31T06:01:25;43.95;;;27.27;;
62006;SDS011;47963;53.008;6.754;2022-10-31T06:03:51;45.50;;;28.05;;
62006;SDS011;47963;53.008;6.754;2022-10-31T06:06:17;45.75;;;29.10;;
62006;SDS011;47963;53.008;6.754;2022-10-31T06:08:42;40.63;;;27.90;;
62006;SDS011;47963;53.008;6.754;2022-10-31T06:11:08;44.17;;;29.75;;
62006;SDS011;47963;53.008;6.754;2022-10-31T06:13:34;45.38;;;28.88;;
62006;SDS011;47963;53.008;6.754;2022-10-31T06:15:59;44.20;;;28.77;;
62006;SDS011;47963;53.008;6.754;2022-10-31T06:18:25;43.55;;;29.65;;
62006;SDS011;47963;53.008;6.754;2022-10-31T06:20:50;42.40;;;29.67;;
62006;SDS011;47963;53.008;6.754;2022-10-31T06:23:16;42.95;;;28.90;;
62006;SDS011;47963;53.008;6.754;2022-10-31T06:25:42;49.30;;;32.10;;
62006;SDS011;47963;53.008;6.754;2022-10-31T06:28:07;43.35;;;30.42;;
62006;SDS011;47963;53.008;6.754;2022-10-31T06:30:33;46.15;;;30.60;;
62006;SDS011;47963;53.008;6.754;2022-10-31T06:33:05;44.92;;;30.20;;
62006;SDS011;47963;53.008;6.754;2022-10-31T06:35:30;45.75;;;32.70;;
62006;SDS011;47963;53.008;6.754;2022-10-31T06:37:57;52.38;;;34.85;;
62006;SDS011;47963;53.008;6.754;2022-10-31T06:40:23;51.63;;;33.92;;
62006;SDS011;47963;53.008;6.754;2022-10-31T06:42:55;47.72;;;32.03;;
62006;SDS011;47963;53.008;6.754;2022-10-31T06:45:25;46.70;;;32.90;;
62006;SDS011;47963;53.008;6.754;2022-10-31T06:47:54;46.20;;;33.17;;
62006;SDS011;47963;53.008;6.754;2022-10-31T06:50:21;47.97;;;32.95;;
62006;SDS011;47963;53.008;6.754;2022-10-31T06:52:51;44.13;;;32.08;;
62006;SDS011;47963;53.008;6.754;2022-10-31T06:55:17;47.85;;;33.08;;
62006;SDS011;47963;53.008;6.754;2022-10-31T06:57:55;46.80;;;32.60;;
62006;SDS011;47963;53.008;6.754;2022-10-31T07:00:22;48.95;;;32.92;;
62006;SDS011;47963;53.008;6.754;2022-10-31T07:02:55;47.55;;;33.13;;
62006;SDS011;47963;53.008;6.754;2022-10-31T07:05:21;47.53;;;33.63;;
62006;SDS011;47963;53.008;6.754;2022-10-31T07:07:47;49.22;;;32.88;;
62006;SDS011;47963;53.008;6.754;2022-10-31T07:10:16;53.80;;;34.80;;
62006;SDS011;47963;53.008;6.754;2022-10-31T07:12:42;46.80;;;33.17;;
62006;SDS011;47963;53.008;6.754;2022-10-31T07:15:08;45.35;;;33.03;;
62006;SDS011;47963;53.008;6.754;2022-10-31T07:17:33;46.08;;;33.67;;
62006;SDS011;47963;53.008;6.754;2022-10-31T07:20:00;60.28;;;36.33;;
62006;SDS011;47963;53.008;6.754;2022-10-31T07:22:32;43.17;;;32.30;;
62006;SDS011;47963;53.008;6.754;2022-10-31T07:25:01;46.63;;;33.22;;
62006;SDS011;47963;53.008;6.754;2022-10-31T07:27:26;47.47;;;34.78;;
62006;SDS011;47963;53.008;6.754;2022-10-31T07:29:52;45.33;;;34.47;;
62006;SDS011;47963;53.008;6.754;2022-10-31T07:32:18;44.92;;;33.58;;
62006;SDS011;47963;53.008;6.754;2022-10-31T07:34:43;46.03;;;33.50;;
62006;SDS011;47963;53.008;6.754;2022-10-31T07:37:09;47.28;;;34.72;;
62006;SDS011;47963;53.008;6.754;2022-10-31T07:39:35;46.03;;;34.22;;
62006;SDS011;47963;53.008;6.754;2022-10-31T07:42:00;45.65;;;34.75;;
62006;SDS011;47963;53.008;6.754;2022-10-31T07:44:26;45.80;;;34.83;;
62006;SDS011;47963;53.008;6.754;2022-10-31T07:46:51;44.15;;;34.47;;
62006;SDS011;47963;53.008;6.754;2022-10-31T07:49:17;46.33;;;34.72;;
62006;SDS011;47963;53.008;6.754;2022-10-31T07:51:43;44.65;;;33.80;;
62006;SDS011;47963;53.008;6.754;2022-10-31T07:54:08;46.03;;;34.65;;
62006;SDS011;47963;53.008;6.754;2022-10-31T07:56:34;47.83;;;36.03;;
62006;SDS011;47963;53.008;6.754;2022-10-31T07:59:00;51.65;;;37.20;;
62006;SDS011;47963;53.008;6.754;2022-10-31T08:01:25;49.30;;;36.75;;
62006;SDS011;47963;53.008;6.754;2022-10-31T08:03:51;48.00;;;36.17;;
62006;SDS011;47963;53.008;6.754;2022-10-31T08:06:16;50.58;;;36.47;;
62006;SDS011;47963;53.008;6.754;2022-10-31T08:08:42;52.03;;;36.50;;
62006;SDS011;47963;53.008;6.754;2022-10-31T08:11:08;57.17;;;38.67;;
62006;SDS011;47963;53.008;6.754;2022-10-31T08:13:33;55.97;;;38.60;;
62006;SDS011;47963;53.008;6.754;2022-10-31T08:15:59;53.55;;;39.50;;
62006;SDS011;47963;53.008;6.754;2022-10-31T08:18:29;60.42;;;41.22;;
62006;SDS011;47963;53.008;6.754;2022-10-31T08:20:55;58.50;;;40.78;;
62006;SDS011;47963;53.008;6.754;2022-10-31T08:23:20;65.88;;;43.78;;
62006;SDS011;47963;53.008;6.754;2022-10-31T08:25:46;59.25;;;41.63;;
62006;SDS011;47963;53.008;6.754;2022-10-31T08:28:12;60.70;;;41.30;;
62006;SDS011;47963;53.008;6.754;2022-10-31T08:30:39;61.22;;;41.70;;
62006;SDS011;47963;53.008;6.754;2022-10-31T08:33:12;61.75;;;40.10;;
62006;SDS011;47963;53.008;6.754;2022-10-31T08:35:40;63.20;;;42.85;;
62006;SDS011;47963;53.008;6.754;2022-10-31T08:38:07;65.03;;;42.42;;
62006;SDS011;47963;53.008;6.754;2022-10-31T08:40:35;62.67;;;42.67;;
62006;SDS011;47963;53.008;6.754;2022-10-31T08:43:05;64.72;;;42.08;;
62006;SDS011;47963;53.008;6.754;2022-10-31T08:45:38;63.55;;;40.97;;
62006;SDS011;47963;53.008;6.754;2022-10-31T08:48:05;64.90;;;42.58;;
62006;SDS011;47963;53.008;6.754;2022-10-31T08:50:34;63.85;;;42.65;;
62006;SDS011;47963;53.008;6.754;2022-10-31T08:53:01;58.67;;;41.08;;
62006;SDS011;47963;53.008;6.754;2022-10-31T08:55:41;67.95;;;43.75;;
62006;SDS011;47963;53.008;6.754;2022-10-31T08:58:26;66.93;;;41.78;;
62006;SDS011;47963;53.008;6.754;2022-10-31T09:00:53;69.75;;;45.20;;
62006;SDS011;47963;53.008;6.754;2022-10-31T09:03:23;69.10;;;42.97;;
62006;SDS011;47963;53.008;6.754;2022-10-31T09:05:50;71.70;;;43.53;;
62006;SDS011;47963;53.008;6.754;2022-10-31T09:08:19;72.63;;;44.97;;
62006;SDS011;47963;53.008;6.754;2022-10-31T09:10:45;66.30;;;42.85;;
62006;SDS011;47963;53.008;6.754;2022-10-31T09:13:11;78.75;;;46.05;;
62006;SDS011;47963;53.008;6.754;2022-10-31T09:15:39;76.38;;;45.83;;
62006;SDS011;47963;53.008;6.754;2022-10-31T09:18:08;83.93;;;47.55;;
62006;SDS011;47963;53.008;6.754;2022-10-31T09:20:36;76.55;;;46.25;;
62006;SDS011;47963;53.008;6.754;2022-10-31T09:23:03;75.95;;;47.70;;
62006;SDS011;47963;53.008;6.754;2022-10-31T09:25:35;86.13;;;46.78;;
62006;SDS011;47963;53.008;6.754;2022-10-31T09:28:02;83.57;;;47.38;;
62006;SDS011;47963;53.008;6.754;2022-10-31T09:30:29;76.18;;;43.92;;
62006;SDS011;47963;53.008;6.754;2022-10-31T09:32:57;79.32;;;43.53;;
62006;SDS011;47963;53.008;6.754;2022-10-31T09:35:30;69.63;;;40.50;;
62006;SDS011;47963;53.008;6.754;2022-10-31T09:46:04;67.60;;;39.78;;
62006;SDS011;47963;53.008;6.754;2022-10-31T09:48:46;69.22;;;41.72;;
62006;SDS011;47963;53.008;6.754;2022-10-31T09:51:34;70.30;;;41.53;;
62006;SDS011;47963;53.008;6.754;2022-10-31T09:56:47;68.55;;;38.05;;
62006;SDS011;47963;53.008;6.754;2022-10-31T09:59:35;72.32;;;40.58;;
62006;SDS011;47963;53.008;6.754;2022-10-31T10:02:02;66.90;;;38.80;;
62006;SDS011;47963;53.008;6.754;2022-10-31T10:04:36;76.93;;;41.28;;
62006;SDS011;47963;53.008;6.754;2022-10-31T10:10:21;68.97;;;40.15;;
62006;SDS011;47963;53.008;6.754;2022-10-31T10:23:58;71.18;;;39.25;;
62006;SDS011;47963;53.008;6.754;2022-10-31T10:27:05;70.53;;;38.58;;
62006;SDS011;47963;53.008;6.754;2022-10-31T10:32:41;72.47;;;38.55;;
62006;SDS011;47963;53.008;6.754;2022-10-31T10:40:43;69.25;;;37.92;;
62006;SDS011;47963;53.008;6.754;2022-10-31T10:45:45;65.30;;;36.05;;
62006;SDS011;47963;53.008;6.754;2022-10-31T10:48:56;71.20;;;36.97;;
62006;SDS011;47963;53.008;6.754;2022-10-31T10:51:32;61.25;;;35.60;;
62006;SDS011;47963;53.008;6.754;2022-10-31T10:54:11;65.05;;;36.15;;
62006;SDS011;47963;53.008;6.754;2022-10-31T10:59:43;60.47;;;33.80;;
62006;SDS011;47963;53.008;6.754;2022-10-31T11:02:15;65.13;;;34.20;;
62006;SDS011;47963;53.008;6.754;2022-10-31T11:04:54;60.88;;;32.97;;
62006;SDS011;47963;53.008;6.754;2022-10-31T11:07:23;54.30;;;32.93;;
62006;SDS011;47963;53.008;6.754;2022-10-31T11:09:48;59.03;;;31.98;;
62006;SDS011;47963;53.008;6.754;2022-10-31T11:12:21;53.80;;;31.40;;
62006;SDS011;47963;53.008;6.754;2022-10-31T11:14:51;55.33;;;28.02;;
62006;SDS011;47963;53.008;6.754;2022-10-31T11:17:41;53.13;;;27.33;;
62006;SDS011;47963;53.008;6.754;2022-10-31T11:22:38;50.78;;;26.67;;
62006;SDS011;47963;53.008;6.754;2022-10-31T11:25:21;52.92;;;25.13;;
62006;SDS011;47963;53.008;6.754;2022-10-31T11:27:58;44.10;;;22.80;;
62006;SDS011;47963;53.008;6.754;2022-10-31T11:30:25;42.17;;;21.85;;
62006;SDS011;47963;53.008;6.754;2022-10-31T11:32:51;52.25;;;25.70;;
62006;SDS011;47963;53.008;6.754;2022-10-31T11:35:17;46.40;;;23.10;;
62006;SDS011;47963;53.008;6.754;2022-10-31T11:37:46;43.13;;;21.58;;
62006;SDS011;47963;53.008;6.754;2022-10-31T11:40:24;47.90;;;22.00;;
62006;SDS011;47963;53.008;6.754;2022-10-31T11:42:52;44.45;;;21.33;;
62006;SDS011;47963;53.008;6.754;2022-10-31T11:47:57;43.78;;;21.75;;
62006;SDS011;47963;53.008;6.754;2022-10-31T11:50:36;46.67;;;23.77;;
62006;SDS011;47963;53.008;6.754;2022-10-31T11:53:10;46.83;;;23.85;;
62006;SDS011;47963;53.008;6.754;2022-10-31T11:55:41;49.85;;;26.42;;
62006;SDS011;47963;53.008;6.754;2022-10-31T11:58:20;49.30;;;27.27;;
62006;SDS011;47963;53.008;6.754;2022-10-31T12:00:51;54.47;;;28.75;;
62006;SDS011;47963;53.008;6.754;2022-10-31T12:08:23;58.40;;;31.45;;
62006;SDS011;47963;53.008;6.754;2022-10-31T12:16:57;64.55;;;32.97;;
62006;SDS011;47963;53.008;6.754;2022-10-31T12:25:07;60.97;;;28.70;;
62006;SDS011;47963;53.008;6.754;2022-10-31T12:44:58;51.22;;;25.98;;
62006;SDS011;47963;53.008;6.754;2022-10-31T12:52:51;57.25;;;26.52;;
62006;SDS011;47963;53.008;6.754;2022-10-31T12:55:36;57.92;;;26.67;;
62006;SDS011;47963;53.008;6.754;2022-10-31T12:58:10;43.88;;;22.90;;
62006;SDS011;47963;53.008;6.754;2022-10-31T13:00:45;54.05;;;26.80;;
62006;SDS011;47963;53.008;6.754;2022-10-31T13:06:07;50.03;;;24.92;;
62006;SDS011;47963;53.008;6.754;2022-10-31T13:11:29;50.72;;;25.60;;
62006;SDS011;47963;53.008;6.754;2022-10-31T13:16:51;54.85;;;26.95;;
62006;SDS011;47963;53.008;6.754;2022-10-31T13:19:20;48.38;;;24.23;;
62006;SDS011;47963;53.008;6.754;2022-10-31T13:22:02;43.03;;;24.92;;
62006;SDS011;47963;53.008;6.754;2022-10-31T13:24:33;47.55;;;24.48;;
62006;SDS011;47963;53.008;6.754;2022-10-31T13:30:14;44.97;;;25.02;;
62006;SDS011;47963;53.008;6.754;2022-10-31T13:32:51;50.15;;;25.40;;
62006;SDS011;47963;53.008;6.754;2022-10-31T13:38:00;47.10;;;24.98;;
62006;SDS011;47963;53.008;6.754;2022-10-31T13:43:17;54.07;;;23.80;;
62006;SDS011;47963;53.008;6.754;2022-10-31T13:45:51;49.13;;;23.77;;
62006;SDS011;47963;53.008;6.754;2022-10-31T13:50:56;43.77;;;21.97;;
62006;SDS011;47963;53.008;6.754;2022-10-31T13:58:33;44.20;;;21.85;;
62006;SDS011;47963;53.008;6.754;2022-10-31T14:01:21;44.75;;;20.90;;
62006;SDS011;47963;53.008;6.754;2022-10-31T14:04:00;45.22;;;20.98;;
62006;SDS011;47963;53.008;6.754;2022-10-31T14:06:42;45.65;;;21.45;;
62006;SDS011;47963;53.008;6.754;2022-10-31T14:09:21;50.20;;;21.60;;
62006;SDS011;47963;53.008;6.754;2022-10-31T14:12:06;49.95;;;23.48;;
62006;SDS011;47963;53.008;6.754;2022-10-31T14:14:45;47.33;;;25.25;;
62006;SDS011;47963;53.008;6.754;2022-10-31T14:17:16;46.25;;;24.50;;
62006;SDS011;47963;53.008;6.754;2022-10-31T14:19:56;51.08;;;25.50;;
62006;SDS011;47963;53.008;6.754;2022-10-31T14:22:28;48.92;;;22.98;;
62006;SDS011;47963;53.008;6.754;2022-10-31T14:24:54;42.55;;;22.25;;
62006;SDS011;47963;53.008;6.754;2022-10-31T14:29:46;41.05;;;20.02;;
62006;SDS011;47963;53.008;6.754;2022-10-31T14:34:57;42.45;;;17.38;;
62006;SDS011;47963;53.008;6.754;2022-10-31T14:53:24;31.95;;;15.55;;
62006;SDS011;47963;53.008;6.754;2022-10-31T14:55:56;33.10;;;14.75;;
62006;SDS011;47963;53.008;6.754;2022-10-31T15:01:19;32.38;;;14.18;;
62006;SDS011;47963;53.008;6.754;2022-10-31T15:03:52;33.42;;;13.80;;
62006;SDS011;47963;53.008;6.754;2022-10-31T15:06:22;29.90;;;13.35;;
62006;SDS011;47963;53.008;6.754;2022-10-31T15:08:50;26.20;;;12.77;;
62006;SDS011;47963;53.008;6.754;2022-10-31T15:11:19;30.08;;;12.65;;
62006;SDS011;47963;53.008;6.754;2022-10-31T15:13:50;25.83;;;12.57;;
62006;SDS011;47963;53.008;6.754;2022-10-31T15:16:27;29.40;;;12.65;;
62006;SDS011;47963;53.008;6.754;2022-10-31T15:18:59;27.92;;;13.25;;
62006;SDS011;47963;53.008;6.754;2022-10-31T15:21:28;37.50;;;12.02;;
62006;SDS011;47963;53.008;6.754;2022-10-31T15:23:55;31.55;;;13.13;;
62006;SDS011;47963;53.008;6.754;2022-10-31T15:26:25;25.90;;;12.05;;
62006;SDS011;47963;53.008;6.754;2022-10-31T15:28:58;31.80;;;11.27;;
62006;SDS011;47963;53.008;6.754;2022-10-31T15:31:25;27.45;;;11.32;;
62006;SDS011;47963;53.008;6.754;2022-10-31T15:33:52;26.00;;;11.10;;
62006;SDS011;47963;53.008;6.754;2022-10-31T15:36:21;27.77;;;11.27;;
62006;SDS011;47963;53.008;6.754;2022-10-31T15:38:48;27.50;;;11.10;;
62006;SDS011;47963;53.008;6.754;2022-10-31T15:41:26;28.67;;;11.65;;
62006;SDS011;47963;53.008;6.754;2022-10-31T15:43:56;26.48;;;12.38;;
62006;SDS011;47963;53.008;6.754;2022-10-31T15:46:29;26.98;;;12.52;;
62006;SDS011;47963;53.008;6.754;2022-10-31T15:48:55;27.48;;;12.60;;
62006;SDS011;47963;53.008;6.754;2022-10-31T15:51:29;25.65;;;12.77;;
62006;SDS011;47963;53.008;6.754;2022-10-31T15:53:57;28.17;;;14.45;;
62006;SDS011;47963;53.008;6.754;2022-10-31T15:56:26;31.33;;;16.05;;
62006;SDS011;47963;53.008;6.754;2022-10-31T15:58:54;37.25;;;22.70;;
62006;SDS011;47963;53.008;6.754;2022-10-31T16:01:23;36.88;;;19.73;;
62006;SDS011;47963;53.008;6.754;2022-10-31T16:04:01;36.28;;;20.33;;
62006;SDS011;47963;53.008;6.754;2022-10-31T16:06:44;35.33;;;20.92;;
62006;SDS011;47963;53.008;6.754;2022-10-31T16:09:25;40.55;;;21.08;;
62006;SDS011;47963;53.008;6.754;2022-10-31T16:11:51;39.47;;;21.55;;
62006;SDS011;47963;53.008;6.754;2022-10-31T16:14:18;42.25;;;22.60;;
62006;SDS011;47963;53.008;6.754;2022-10-31T16:16:49;41.08;;;22.85;;
62006;SDS011;47963;53.008;6.754;2022-10-31T16:19:32;38.60;;;23.73;;
62006;SDS011;47963;53.008;6.754;2022-10-31T16:22:04;41.97;;;24.30;;
62006;SDS011;47963;53.008;6.754;2022-10-31T16:24:32;45.95;;;26.40;;
62006;SDS011;47963;53.008;6.754;2022-10-31T16:27:06;44.03;;;25.63;;
62006;SDS011;47963;53.008;6.754;2022-10-31T16:29:42;47.90;;;27.08;;
62006;SDS011;47963;53.008;6.754;2022-10-31T16:32:29;49.35;;;30.27;;
62006;SDS011;47963;53.008;6.754;2022-10-31T16:35:00;47.10;;;27.92;;
62006;SDS011;47963;53.008;6.754;2022-10-31T16:37:38;55.35;;;31.50;;
62006;SDS011;47963;53.008;6.754;2022-10-31T16:42:34;54.28;;;32.60;;
62006;SDS011;47963;53.008;6.754;2022-10-31T16:45:00;71.93;;;39.38;;
62006;SDS011;47963;53.008;6.754;2022-10-31T16:47:26;105.35;;;58.65;;
62006;SDS011;47963;53.008;6.754;2022-10-31T16:49:51;54.90;;;32.25;;
62006;SDS011;47963;53.008;6.754;2022-10-31T16:52:17;56.65;;;33.70;;
62006;SDS011;47963;53.008;6.754;2022-10-31T16:54:43;57.15;;;35.05;;
62006;SDS011;47963;53.008;6.754;2022-10-31T16:57:12;69.05;;;38.58;;
62006;SDS011;47963;53.008;6.754;2022-10-31T17:02:09;57.30;;;34.92;;
62006;SDS011;47963;53.008;6.754;2022-10-31T17:04:39;60.65;;;36.33;;
62006;SDS011;47963;53.008;6.754;2022-10-31T17:07:04;63.53;;;36.67;;
62006;SDS011;47963;53.008;6.754;2022-10-31T17:09:30;67.93;;;37.17;;
62006;SDS011;47963;53.008;6.754;2022-10-31T17:11:56;61.58;;;36.33;;
62006;SDS011;47963;53.008;6.754;2022-10-31T17:14:22;72.60;;;42.15;;
62006;SDS011;47963;53.008;6.754;2022-10-31T17:16:48;70.72;;;40.80;;
62006;SDS011;47963;53.008;6.754;2022-10-31T17:19:14;73.82;;;41.88;;